Time;durP1;ratioP1;P1;durP2;ratioP2;P2;SDS_P1;SDS_P2;PMS_P1;PMS_P2;Temp;Humidity;BMP_temperature;BMP_pressure;BME280_temperature;BME280_humidity;BME280_pressure;Samples;Min_cycle;Max_cycle;Signal;HPM_P1;HPM_P2
2022/01/15 00:00:21;;;;;;;29.00;9.25;;;6.40;99.90;;;;;;5093165;28;20048;-74
2022/01/15 00:02:47;;;;;;;29.65;8.30;;;6.40;99.90;;;;;;5093135;28;20047;-72
2022/01/15 00:05:13;;;;;;;34.95;8.73;;;6.50;99.90;;;;;;5074932;28;20048;-73
2022/01/15 00:07:39;;;;;;;26.58;8.70;;;6.40;99.90;;;;;;5108629;28;20050;-73
2022/01/15 00:10:06;;;;;;;26.58;8.60;;;6.40;99.90;;;;;;5093212;28;20426;-73
2022/01/15 00:12:39;;;;;;;23.80;8.27;;;6.40;99.90;;;;;;5108616;28;20047;-74
2022/01/15 00:15:17;;;;;;;24.83;8.02;;;6.50;99.90;;;;;;5091233;28;20163;-73
2022/01/15 00:20:10;;;;;;;26.87;8.93;;;6.50;99.90;;;;;;5092987;28;20432;-73
2022/01/15 00:22:36;;;;;;;27.13;9.38;;;6.50;99.90;;;;;;5092721;28;20372;-73
2022/01/15 00:25:02;;;;;;;26.98;8.52;;;6.40;99.90;;;;;;5092513;28;20147;-73
2022/01/15 00:27:27;;;;;;;28.42;9.00;;;6.40;99.90;;;;;;5094644;28;20187;-74
2022/01/15 00:29:53;;;;;;;26.10;9.23;;;6.50;99.90;;;;;;5077935;28;20043;-72
2022/01/15 00:32:19;;;;;;;26.30;8.93;;;6.50;99.90;;;;;;5112466;28;20081;-75
2022/01/15 00:34:45;;;;;;;34.35;9.30;;;6.40;99.90;;;;;;5062316;28;20560;-74
2022/01/15 00:37:10;;;;;;;27.77;8.95;;;6.40;99.90;;;;;;5111876;28;20105;-73
2022/01/15 00:39:36;;;;;;;32.15;8.73;;;6.40;99.90;;;;;;5094355;28;20051;-73
2022/01/15 00:42:02;;;;;;;30.63;8.95;;;6.40;99.90;;;;;;5112801;28;20047;-74
2022/01/15 00:44:28;;;;;;;27.00;8.77;;;6.40;99.90;;;;;;5094764;28;20108;-73
2022/01/15 00:46:54;;;;;;;29.50;8.18;;;6.40;99.90;;;;;;5112708;28;20135;-73
2022/01/15 00:49:19;;;;;;;30.13;8.75;;;6.50;99.90;;;;;;5094601;28;20051;-73
2022/01/15 00:51:45;;;;;;;28.35;9.20;;;6.50;99.90;;;;;;5111588;28;20171;-73
2022/01/15 00:54:11;;;;;;;25.52;8.60;;;6.50;99.90;;;;;;5094554;28;20054;-73
2022/01/15 00:56:37;;;;;;;33.22;9.40;;;6.50;99.90;;;;;;5094499;28;20048;-74
2022/01/15 00:59:08;;;;;;;36.75;10.23;;;6.50;99.90;;;;;;5094435;28;20047;-73
2022/01/15 01:01:34;;;;;;;45.22;10.90;;;6.60;99.90;;;;;;5112525;28;20130;-72
2022/01/15 01:04:00;;;;;;;30.38;9.73;;;6.50;99.90;;;;;;5077640;28;20130;-72
2022/01/15 01:06:26;;;;;;;31.83;9.75;;;6.50;99.90;;;;;;5094489;28;20052;-73
2022/01/15 01:08:52;;;;;;;35.05;10.07;;;6.50;99.90;;;;;;5077781;28;20416;-73
2022/01/15 01:11:28;;;;;;;40.13;10.25;;;6.40;99.90;;;;;;5094299;28;20491;-73
2022/01/15 01:24:46;;;;;;;26.15;7.95;;;6.40;99.90;;;;;;5094525;28;20055;-72
2022/01/15 01:27:19;;;;;;;;;;;6.40;99.90;;;;;;5079250;28;20048;-73
2022/01/15 01:35:09;;;;;;;29.35;8.73;;;6.40;99.90;;;;;;5083018;28;20356;-73
2022/01/15 01:37:40;;;;;;;23.33;7.85;;;6.40;99.90;;;;;;5116753;28;20428;-73
2022/01/15 01:40:20;;;;;;;23.90;7.13;;;6.40;99.90;;;;;;5098604;28;20056;-71
2022/01/15 01:42:59;;;;;;;23.83;8.00;;;6.40;99.90;;;;;;5116950;28;20036;-73
2022/01/15 01:45:25;;;;;;;24.30;7.50;;;6.40;99.90;;;;;;5098502;28;20059;-73
2022/01/15 01:47:51;;;;;;;23.60;7.70;;;6.40;99.90;;;;;;5081185;28;20096;-72
2022/01/15 01:50:23;;;;;;;32.42;8.40;;;6.50;99.90;;;;;;5097811;28;20130;-72
2022/01/15 01:52:52;;;;;;;32.55;9.50;;;6.50;99.90;;;;;;5098509;28;20059;-72
2022/01/15 01:55:22;;;;;;;29.40;8.55;;;6.40;99.90;;;;;;5097773;28;20047;-73
2022/01/15 01:57:49;;;;;;;25.02;7.35;;;6.30;99.90;;;;;;5116049;28;20043;-72
2022/01/15 02:00:19;;;;;;;22.30;7.38;;;6.40;99.90;;;;;;5115938;28;20051;-73
2022/01/15 02:02:46;;;;;;;31.25;8.80;;;6.40;99.90;;;;;;5116434;28;20043;-72
2022/01/15 02:05:13;;;;;;;20.20;7.10;;;6.40;99.90;;;;;;5097519;28;20448;-72
2022/01/15 02:07:40;;;;;;;22.10;7.07;;;6.40;99.90;;;;;;5097017;28;20035;-72
2022/01/15 02:10:11;;;;;;;25.95;7.05;;;6.40;99.90;;;;;;5115855;28;20798;-72
2022/01/15 02:12:37;;;;;;;22.90;7.20;;;6.30;99.90;;;;;;5097964;28;20054;-74
2022/01/15 02:15:14;;;;;;;19.00;6.43;;;6.40;99.90;;;;;;5115697;28;20415;-73
2022/01/15 02:17:42;;;;;;;24.58;7.43;;;6.30;99.90;;;;;;5097502;28;20113;-73
2022/01/15 02:23:34;;;;;;;21.63;6.63;;;6.40;99.90;;;;;;5115415;28;20107;-73
2022/01/15 02:26:08;;;;;;;18.42;6.07;;;6.30;99.90;;;;;;5097077;28;20059;-72
2022/01/15 02:28:38;;;;;;;19.27;6.68;;;6.30;99.90;;;;;;5114687;28;20059;-73
2022/01/15 02:31:13;;;;;;;17.13;6.35;;;6.30;99.90;;;;;;5097994;28;20047;-73
2022/01/15 02:33:40;;;;;;;16.23;5.47;;;6.30;99.90;;;;;;5115037;28;20487;-73
2022/01/15 02:36:09;;;;;;;25.88;6.93;;;6.30;99.90;;;;;;5097236;28;20603;-73
2022/01/15 02:38:38;;;;;;;24.10;6.43;;;6.30;99.90;;;;;;5114262;28;20044;-73
2022/01/15 02:41:05;;;;;;;20.17;6.93;;;6.20;99.90;;;;;;5097251;28;20040;-73
2022/01/15 02:43:34;;;;;;;20.40;6.25;;;6.30;99.90;;;;;;5096908;28;20100;-74
2022/01/15 02:46:18;;;;;;;23.15;6.32;;;6.30;99.90;;;;;;5097145;28;20055;-73
2022/01/15 02:48:46;;;;;;;18.75;6.53;;;6.30;99.90;;;;;;5115476;28;20070;-72
2022/01/15 02:51:12;;;;;;;18.75;6.50;;;6.30;99.90;;;;;;5116002;28;20087;-73
2022/01/15 02:53:38;;;;;;;19.17;6.10;;;6.30;99.90;;;;;;5100705;28;20058;-72
2022/01/15 02:56:04;;;;;;;21.25;6.65;;;6.30;99.90;;;;;;5118169;28;20044;-71
2022/01/15 02:58:30;;;;;;;19.77;5.95;;;6.40;99.90;;;;;;5098380;28;20131;-72
2022/01/15 03:00:56;;;;;;;17.98;5.93;;;6.30;99.90;;;;;;5116172;28;20051;-73
2022/01/15 03:03:22;;;;;;;19.17;6.28;;;6.30;99.90;;;;;;5098294;28;20044;-72
2022/01/15 03:05:48;;;;;;;17.33;6.03;;;6.40;99.90;;;;;;5098563;28;20134;-71
2022/01/15 03:08:13;;;;;;;17.25;5.60;;;6.40;99.90;;;;;;5116544;28;20144;-73
2022/01/15 03:10:39;;;;;;;19.45;6.90;;;6.40;99.90;;;;;;5098443;28;20120;-72
2022/01/15 03:13:13;;;;;;;24.10;6.45;;;6.30;99.90;;;;;;5099650;28;20172;-72
2022/01/15 03:15:40;;;;;;;16.88;6.10;;;6.30;99.90;;;;;;5117765;28;20050;-73
2022/01/15 03:18:06;;;;;;;17.83;6.20;;;6.20;99.90;;;;;;5099764;28;20053;-73
2022/01/15 03:20:31;;;;;;;16.38;5.47;;;6.20;99.90;;;;;;5082230;28;20150;-73
2022/01/15 03:22:57;;;;;;;20.02;5.50;;;6.20;99.90;;;;;;5098085;28;20040;-74
2022/01/15 03:25:23;;;;;;;17.73;4.63;;;6.20;99.90;;;;;;5097986;28;20053;-72
2022/01/15 03:27:50;;;;;;;14.80;4.53;;;6.30;99.90;;;;;;5116591;28;20062;-72
2022/01/15 03:30:15;;;;;;;15.70;4.95;;;6.30;99.90;;;;;;5115312;28;20498;-73
2022/01/15 03:32:44;;;;;;;18.20;5.18;;;6.30;99.90;;;;;;5097897;28;20051;-73
2022/01/15 03:35:15;;;;;;;13.43;4.68;;;6.30;99.90;;;;;;5097407;28;20112;-72
2022/01/15 03:37:42;;;;;;;11.77;4.28;;;6.30;99.90;;;;;;5097153;28;20114;-72
2022/01/15 03:40:10;;;;;;;15.63;4.75;;;6.20;99.90;;;;;;5114466;28;20048;-73
2022/01/15 03:42:36;;;;;;;13.07;3.95;;;6.30;99.90;;;;;;5079642;28;20051;-72
2022/01/15 03:45:03;;;;;;;14.70;4.75;;;6.20;99.90;;;;;;5096367;28;20067;-72
2022/01/15 03:47:28;;;;;;;12.07;3.78;;;6.30;99.90;;;;;;5096709;28;20050;-72
2022/01/15 03:49:54;;;;;;;12.45;4.00;;;6.30;99.90;;;;;;5078908;28;20055;-73
2022/01/15 03:52:20;;;;;;;11.77;3.85;;;6.20;99.90;;;;;;5095740;28;20062;-73
2022/01/15 03:54:46;;;;;;;11.43;2.95;;;6.20;99.90;;;;;;5113776;28;20102;-73
2022/01/15 03:57:11;;;;;;;10.38;3.25;;;6.20;99.90;;;;;;5112370;28;20043;-72
2022/01/15 03:59:37;;;;;;;8.52;2.70;;;6.10;99.90;;;;;;5095734;28;20071;-73
2022/01/15 04:02:03;;;;;;;9.40;2.35;;;6.10;99.90;;;;;;5113184;28;20093;-73
2022/01/15 04:04:29;;;;;;;9.68;2.50;;;6.20;99.90;;;;;;5095453;28;20043;-73
2022/01/15 04:06:55;;;;;;;8.30;2.90;;;6.20;99.90;;;;;;5095368;28;20101;-73
2022/01/15 04:09:20;;;;;;;12.02;2.95;;;6.20;99.90;;;;;;5112213;28;20048;-73
2022/01/15 04:11:46;;;;;;;8.55;2.72;;;6.20;99.90;;;;;;5113233;28;20126;-72
2022/01/15 04:14:13;;;;;;;10.00;3.03;;;6.10;99.90;;;;;;5094971;28;20484;-72
2022/01/15 04:16:38;;;;;;;9.95;3.28;;;6.20;99.90;;;;;;5095093;28;20044;-72
2022/01/15 04:19:07;;;;;;;10.30;3.53;;;6.10;99.90;;;;;;5095098;28;20070;-72
2022/01/15 04:21:34;;;;;;;9.45;2.85;;;6.00;99.90;;;;;;5094616;28;20052;-72
2022/01/15 04:24:01;;;;;;;14.23;3.53;;;6.10;99.90;;;;;;5094629;28;20109;-73
2022/01/15 04:26:27;;;;;;;15.80;3.35;;;6.10;99.90;;;;;;5091396;28;20056;-72
2022/01/15 04:28:55;;;;;;;8.90;3.03;;;6.10;99.90;;;;;;5091773;28;20048;-73
2022/01/15 04:31:21;;;;;;;12.45;3.17;;;6.10;99.90;;;;;;5092782;28;20051;-72
2022/01/15 04:33:47;;;;;;;11.30;3.28;;;6.10;99.90;;;;;;5092669;28;20051;-72
2022/01/15 04:36:13;;;;;;;9.38;2.63;;;6.10;99.90;;;;;;5093308;28;20047;-72
2022/01/15 04:38:40;;;;;;;10.80;3.22;;;6.10;99.90;;;;;;5091340;28;20083;-73
2022/01/15 04:41:07;;;;;;;10.90;2.75;;;6.10;99.90;;;;;;5091777;28;20101;-73
2022/01/15 04:43:34;;;;;;;9.63;3.03;;;6.10;99.90;;;;;;5091237;28;20036;-73
2022/01/15 04:46:00;;;;;;;10.65;2.85;;;6.20;99.90;;;;;;5092632;28;20056;-74
2022/01/15 04:48:26;;;;;;;9.90;3.08;;;6.20;99.90;;;;;;5091371;28;20043;-72
2022/01/15 04:50:52;;;;;;;12.02;3.50;;;6.10;99.90;;;;;;5108067;28;20387;-73
2022/01/15 04:53:18;;;;;;;9.90;2.90;;;6.10;99.90;;;;;;5092346;28;20094;-72
2022/01/15 04:55:44;;;;;;;9.20;2.95;;;6.10;99.90;;;;;;5092215;28;20055;-72
2022/01/15 04:58:10;;;;;;;11.18;3.13;;;6.10;99.90;;;;;;5108042;28;20052;-73
2022/01/15 05:00:36;;;;;;;8.10;2.75;;;6.00;99.90;;;;;;5092349;28;20056;-72
2022/01/15 05:03:02;;;;;;;9.38;2.30;;;6.00;99.90;;;;;;5095185;28;20123;-73
2022/01/15 05:05:29;;;;;;;11.65;3.40;;;6.00;99.90;;;;;;5078664;28;20503;-73
2022/01/15 05:07:55;;;;;;;9.90;2.77;;;5.90;99.90;;;;;;5096581;28;20048;-73
2022/01/15 05:10:27;;;;;;;7.03;2.30;;;5.90;99.90;;;;;;5096047;28;20044;-73
2022/01/15 05:12:58;;;;;;;9.13;3.08;;;5.90;99.90;;;;;;5096566;28;20277;-73
2022/01/15 05:15:24;;;;;;;8.55;2.65;;;5.90;99.90;;;;;;5096490;28;20044;-72
2022/01/15 05:17:53;;;;;;;7.18;2.53;;;6.00;99.90;;;;;;5096708;28;20407;-73
2022/01/15 05:20:21;;;;;;;9.43;2.83;;;6.00;99.90;;;;;;5096409;28;20048;-73
2022/01/15 05:22:48;;;;;;;8.73;2.90;;;6.00;99.90;;;;;;5096300;28;20145;-73
2022/01/15 05:25:16;;;;;;;8.52;2.90;;;6.00;99.90;;;;;;5096334;28;20226;-73
2022/01/15 05:27:44;;;;;;;9.52;2.70;;;6.00;99.90;;;;;;5095469;28;20063;-74
2022/01/15 05:30:10;;;;;;;;;;;6.00;99.90;;;;;;5096547;28;20055;-73
2022/01/15 05:32:36;;;;;;;8.27;2.30;;;5.90;99.90;;;;;;5095175;28;19934;-74
2022/01/15 05:35:05;;;;;;;10.18;3.00;;;6.00;99.90;;;;;;5095865;28;20092;-74
2022/01/15 05:37:31;;;;;;;12.32;3.00;;;5.90;99.90;;;;;;5111927;28;20044;-74
2022/01/15 05:39:57;;;;;;;10.80;2.50;;;5.90;99.90;;;;;;5095824;28;20468;-73
2022/01/15 05:42:23;;;;;;;10.15;2.65;;;5.90;99.90;;;;;;5094354;28;20548;-73
2022/01/15 05:44:49;;;;;;;8.10;2.50;;;5.80;99.90;;;;;;5095764;28;20048;-74
2022/01/15 05:47:14;;;;;;;8.05;2.50;;;5.80;99.90;;;;;;5111442;28;20495;-73
2022/01/15 05:49:40;;;;;;;6.88;2.40;;;5.90;99.90;;;;;;5096119;28;20051;-74
2022/01/15 05:52:06;;;;;;;8.95;2.60;;;5.90;99.90;;;;;;5094284;28;20044;-72
2022/01/15 05:54:32;;;;;;;7.95;2.40;;;5.90;99.90;;;;;;5094405;28;20106;-74
2022/01/15 05:56:58;;;;;;;8.80;2.90;;;5.90;99.90;;;;;;5094047;28;20052;-73
2022/01/15 05:59:24;;;;;;;7.60;2.70;;;5.90;99.90;;;;;;5077465;28;20044;-73
2022/01/15 06:01:50;;;;;;;7.07;2.35;;;5.90;99.90;;;;;;5095883;28;20113;-74
2022/01/15 06:04:16;;;;;;;8.20;2.47;;;6.00;99.90;;;;;;5094465;28;20106;-73
2022/01/15 06:06:42;;;;;;;7.50;2.20;;;6.00;99.90;;;;;;5094394;28;20039;-73
2022/01/15 06:09:08;;;;;;;8.63;2.75;;;5.90;99.90;;;;;;5095833;28;20040;-73
2022/01/15 06:11:34;;;;;;;7.57;2.28;;;5.80;99.90;;;;;;5095524;28;20492;-73
2022/01/15 06:14:00;;;;;;;8.52;2.42;;;5.90;99.90;;;;;;5094251;28;20048;-73
2022/01/15 06:16:26;;;;;;;7.93;2.60;;;5.90;99.90;;;;;;5093752;28;20460;-73
2022/01/15 06:18:52;;;;;;;9.02;2.78;;;5.90;99.90;;;;;;5093928;28;20135;-73
2022/01/15 06:21:18;;;;;;;9.05;2.95;;;5.90;99.90;;;;;;5095921;28;20044;-72
2022/01/15 06:23:44;;;;;;;8.90;3.05;;;5.90;99.90;;;;;;5093969;28;20093;-73
2022/01/15 06:26:10;;;;;;;8.05;2.50;;;5.90;99.90;;;;;;5093374;28;20095;-73
2022/01/15 06:28:36;;;;;;;9.38;2.63;;;5.90;99.90;;;;;;5093958;28;20048;-72
2022/01/15 06:31:02;;;;;;;7.45;2.40;;;6.00;99.90;;;;;;5095808;28;20109;-72
2022/01/15 06:33:27;;;;;;;9.02;3.15;;;5.90;99.90;;;;;;5077596;28;20532;-73
2022/01/15 06:35:53;;;;;;;8.35;2.53;;;5.90;99.90;;;;;;5094637;28;20091;-74
2022/01/15 06:38:19;;;;;;;7.30;2.25;;;5.90;99.90;;;;;;5096824;28;20051;-73
2022/01/15 06:40:45;;;;;;;7.30;2.20;;;5.90;99.90;;;;;;5102216;28;20052;-72
2022/01/15 06:43:10;;;;;;;6.78;2.28;;;5.90;99.90;;;;;;5104490;28;20087;-73
2022/01/15 06:45:36;;;;;;;6.60;2.05;;;5.90;99.90;;;;;;5088351;28;20051;-73
2022/01/15 06:48:03;;;;;;;7.90;2.35;;;5.80;99.90;;;;;;5105852;28;20099;-73
2022/01/15 06:50:29;;;;;;;10.00;2.30;;;5.70;99.90;;;;;;5103060;28;20122;-73
2022/01/15 06:52:55;;;;;;;7.65;2.15;;;5.70;99.90;;;;;;5102892;28;20075;-74
2022/01/15 06:55:21;;;;;;;8.20;2.47;;;5.80;99.90;;;;;;5101053;28;20083;-73
2022/01/15 06:57:47;;;;;;;8.50;2.45;;;5.80;99.90;;;;;;5098062;28;20071;-74
2022/01/15 07:00:14;;;;;;;8.17;2.33;;;5.80;99.90;;;;;;5097279;28;20119;-71
2022/01/15 07:02:40;;;;;;;8.48;3.10;;;5.80;99.90;;;;;;5095627;28;20044;-72
2022/01/15 07:05:07;;;;;;;9.52;3.17;;;5.80;99.90;;;;;;5095745;28;20047;-71
2022/01/15 07:07:39;;;;;;;9.50;3.08;;;5.80;99.90;;;;;;5102977;28;20048;-72
2022/01/15 07:10:06;;;;;;;8.07;2.50;;;5.90;99.90;;;;;;5103272;28;20479;-72
2022/01/15 07:12:32;;;;;;;7.22;2.28;;;5.80;99.90;;;;;;5096905;28;20070;-73
2022/01/15 07:14:58;;;;;;;8.90;3.10;;;5.80;99.90;;;;;;5096869;28;20170;-74
2022/01/15 07:17:23;;;;;;;9.13;2.53;;;5.70;99.90;;;;;;5096338;28;20472;-73
2022/01/15 07:19:51;;;;;;;9.52;2.90;;;5.80;99.90;;;;;;5095931;28;20052;-72
2022/01/15 07:22:17;;;;;;;9.27;2.70;;;5.80;99.90;;;;;;5112986;28;20051;-72
2022/01/15 07:24:43;;;;;;;9.23;2.92;;;5.70;99.90;;;;;;5099234;28;20060;-72
2022/01/15 07:27:09;;;;;;;11.60;3.60;;;5.70;99.90;;;;;;5113725;28;20083;-73
2022/01/15 07:29:37;;;;;;;12.13;3.95;;;5.70;99.90;;;;;;5103829;28;20052;-72
2022/01/15 07:32:04;;;;;;;12.93;3.78;;;5.60;99.90;;;;;;5121644;28;20047;-74
2022/01/15 07:34:29;;;;;;;13.15;4.10;;;5.60;99.90;;;;;;5119505;28;20056;-73
2022/01/15 07:36:59;;;;;;;12.65;4.07;;;5.60;99.90;;;;;;5114747;28;20043;-73
2022/01/15 07:39:27;;;;;;;11.85;3.92;;;5.60;99.90;;;;;;5097489;28;20055;-74
2022/01/15 07:41:55;;;;;;;13.00;4.13;;;5.60;99.90;;;;;;5096462;28;20051;-73
2022/01/15 07:44:21;;;;;;;14.85;4.13;;;5.70;99.90;;;;;;5079745;28;20075;-72
2022/01/15 07:46:47;;;;;;;15.30;5.05;;;5.60;99.90;;;;;;5116354;28;20495;-72
2022/01/15 07:49:13;;;;;;;15.85;5.70;;;5.60;99.90;;;;;;5091332;28;20069;-72
2022/01/15 07:51:38;;;;;;;15.20;4.93;;;5.60;99.90;;;;;;5123656;28;20073;-73
2022/01/15 07:54:04;;;;;;;16.75;5.25;;;5.60;99.90;;;;;;5118631;28;20036;-73
2022/01/15 07:56:30;;;;;;;19.40;5.55;;;5.60;99.90;;;;;;5082854;28;20100;-74
2022/01/15 07:58:57;;;;;;;17.50;5.57;;;5.60;99.90;;;;;;5117631;28;20086;-72
2022/01/15 08:01:23;;;;;;;16.33;6.00;;;5.60;99.90;;;;;;5115215;28;20048;-73
2022/01/15 08:03:48;;;;;;;16.48;5.68;;;5.50;99.90;;;;;;5096647;28;20055;-73
2022/01/15 08:06:15;;;;;;;16.40;5.25;;;5.50;99.90;;;;;;5115373;28;20396;-73
2022/01/15 08:08:40;;;;;;;16.27;5.50;;;5.50;99.90;;;;;;5115051;28;20047;-72
2022/01/15 08:11:06;;;;;;;17.90;5.63;;;5.50;99.90;;;;;;5114368;28;20495;-73
2022/01/15 08:13:33;;;;;;;18.55;5.15;;;5.40;99.90;;;;;;5113869;28;20373;-73
2022/01/15 08:16:01;;;;;;;15.37;5.37;;;5.50;99.90;;;;;;5078703;28;20147;-74
2022/01/15 08:18:28;;;;;;;20.40;6.15;;;5.40;99.90;;;;;;5095438;28;20281;-73
2022/01/15 08:20:55;;;;;;;21.52;6.45;;;5.50;99.90;;;;;;5113468;28;20058;-73
2022/01/15 08:23:21;;;;;;;16.30;5.43;;;5.40;99.90;;;;;;5095183;28;20125;-73
2022/01/15 08:25:47;;;;;;;19.17;5.72;;;5.50;99.90;;;;;;5094967;28;20040;-73
2022/01/15 08:28:13;;;;;;;16.52;5.65;;;5.50;99.90;;;;;;5113414;28;20058;-73
2022/01/15 08:30:45;;;;;;;19.65;6.85;;;5.60;99.90;;;;;;5113745;28;20050;-73
2022/01/15 08:33:11;;;;;;;19.50;6.35;;;5.50;99.90;;;;;;5113542;28;20084;-72
2022/01/15 08:35:37;;;;;;;22.27;7.35;;;5.40;99.90;;;;;;5077735;28;20040;-74
2022/01/15 08:38:03;;;;;;;24.75;7.03;;;5.50;99.90;;;;;;5112976;28;20093;-73
2022/01/15 08:40:32;;;;;;;24.60;7.93;;;5.40;99.90;;;;;;5095413;28;20136;-74
2022/01/15 08:42:58;;;;;;;25.15;7.95;;;5.40;99.90;;;;;;5112891;28;20126;-73
2022/01/15 08:45:26;;;;;;;23.50;7.70;;;5.40;99.90;;;;;;5094718;28;20367;-73
2022/01/15 08:47:53;;;;;;;27.63;7.57;;;5.40;99.90;;;;;;5113866;28;20058;-74
2022/01/15 08:50:19;;;;;;;23.20;7.65;;;5.40;99.90;;;;;;5078320;28;20055;-73
2022/01/15 08:52:44;;;;;;;20.52;7.35;;;5.40;99.90;;;;;;5094446;28;20074;-73
2022/01/15 08:55:11;;;;;;;23.40;7.68;;;5.50;99.90;;;;;;5094754;28;20432;-72
2022/01/15 08:57:38;;;;;;;20.75;7.50;;;5.50;99.90;;;;;;5094758;28;20047;-72
2022/01/15 09:00:06;;;;;;;20.92;7.10;;;5.50;99.90;;;;;;5113034;28;20094;-72
2022/01/15 09:02:32;;;;;;;22.50;7.72;;;5.50;99.90;;;;;;5094300;28;20524;-73
2022/01/15 09:04:58;;;;;;;21.52;7.07;;;5.50;99.90;;;;;;5094785;28;20051;-73
2022/01/15 09:07:24;;;;;;;27.33;8.52;;;5.90;99.90;;;;;;5112419;28;20044;-73
2022/01/15 09:09:50;;;;;;;23.13;8.13;;;5.50;99.90;;;;;;5094455;28;20078;-73
2022/01/15 09:12:17;;;;;;;24.50;8.23;;;5.50;99.90;;;;;;5093893;28;20048;-73
2022/01/15 09:14:43;;;;;;;20.42;6.75;;;5.40;99.90;;;;;;5077684;28;20130;-73
2022/01/15 09:17:09;;;;;;;23.85;7.53;;;5.60;99.90;;;;;;5094272;28;20146;-73
2022/01/15 09:19:35;;;;;;;23.20;7.68;;;5.60;99.90;;;;;;5094256;28;20199;-72
2022/01/15 09:22:04;;;;;;;22.88;7.55;;;5.50;99.90;;;;;;5112411;28;20036;-73
2022/01/15 09:24:29;;;;;;;24.80;8.85;;;5.50;99.90;;;;;;5112077;28;20066;-73
2022/01/15 09:32:07;;;;;;;17.55;5.78;;;5.50;99.90;;;;;;5093824;28;20054;-73
2022/01/15 09:34:34;;;;;;;20.38;7.38;;;5.50;99.90;;;;;;5112739;28;20104;-73
2022/01/15 09:37:02;;;;;;;19.63;7.30;;;5.60;99.90;;;;;;5112300;28;20131;-73
2022/01/15 09:39:27;;;;;;;18.75;6.38;;;5.50;99.90;;;;;;5094048;28;20048;-73
2022/01/15 09:41:55;;;;;;;19.88;6.65;;;5.90;99.90;;;;;;5093701;28;20105;-72
2022/01/15 09:44:23;;;;;;;17.25;4.78;;;5.10;99.90;;;;;;5112054;28;20052;-73
2022/01/15 09:46:50;;;;;;;14.65;4.88;;;5.50;99.90;;;;;;5094014;28;20144;-73
2022/01/15 09:49:18;;;;;;;15.18;4.55;;;5.50;99.90;;;;;;5116502;28;20368;-73
2022/01/15 09:51:45;;;;;;;17.67;5.10;;;5.50;99.90;;;;;;5098111;28;20160;-72
2022/01/15 09:54:13;;;;;;;16.38;5.18;;;5.50;99.90;;;;;;5116061;28;20139;-72
2022/01/15 09:56:39;;;;;;;18.17;5.57;;;5.50;99.90;;;;;;5097528;28;20055;-72
2022/01/15 09:59:05;;;;;;;16.73;5.80;;;5.40;99.90;;;;;;5097943;28;20486;-72
2022/01/15 10:01:31;;;;;;;16.15;6.68;;;5.50;99.90;;;;;;5116078;28;20422;-73
2022/01/15 10:03:59;;;;;;;18.50;6.75;;;5.50;99.90;;;;;;5097201;28;20051;-73
2022/01/15 10:06:25;;;;;;;23.05;6.90;;;5.50;99.90;;;;;;5116168;28;20051;-73
2022/01/15 10:09:08;;;;;;;23.27;8.35;;;5.40;99.90;;;;;;5115420;28;20506;-72
2022/01/15 10:11:46;;;;;;;23.98;8.23;;;5.30;99.90;;;;;;5080610;28;20052;-73
2022/01/15 10:14:29;;;;;;;30.33;10.13;;;5.30;99.90;;;;;;5115961;28;20096;-73
2022/01/15 10:16:57;;;;;;;24.55;9.25;;;5.20;99.90;;;;;;5115618;28;20051;-73
2022/01/15 10:19:33;;;;;;;27.38;10.05;;;5.30;99.90;;;;;;5115607;28;20119;-72
2022/01/15 10:22:14;;;;;;;26.10;10.03;;;5.30;99.90;;;;;;5097555;28;20054;-73
2022/01/15 10:24:42;;;;;;;29.52;9.65;;;5.30;99.90;;;;;;5081077;28;20293;-73
2022/01/15 10:27:23;;;;;;;26.00;8.95;;;5.30;99.90;;;;;;5096889;28;20056;-73
2022/01/15 10:30:06;;;;;;;23.02;8.00;;;5.40;99.90;;;;;;5115535;28;20052;-73
2022/01/15 10:32:34;;;;;;;25.80;8.73;;;5.50;99.90;;;;;;5115362;28;20448;-73
2022/01/15 10:35:08;;;;;;;26.08;8.38;;;5.50;99.90;;;;;;5097521;28;20043;-72
2022/01/15 10:37:45;;;;;;;22.27;8.38;;;5.50;99.90;;;;;;5097397;28;20078;-74
2022/01/15 10:40:12;;;;;;;28.00;10.55;;;5.50;99.90;;;;;;5114657;28;20090;-73
2022/01/15 10:42:38;;;;;;;25.55;9.90;;;5.60;99.90;;;;;;5097394;28;20064;-73
2022/01/15 10:45:13;;;;;;;29.50;10.20;;;5.50;99.90;;;;;;5115560;28;20120;-74
2022/01/15 10:47:42;;;;;;;28.63;9.95;;;5.50;99.90;;;;;;5079867;28;20373;-73
2022/01/15 10:50:31;;;;;;;24.05;8.18;;;5.50;99.90;;;;;;5115509;28;20039;-74
2022/01/15 10:53:03;;;;;;;28.50;9.15;;;5.60;99.90;;;;;;5097460;28;20062;-73
2022/01/15 10:55:31;;;;;;;23.52;8.90;;;5.60;99.90;;;;;;5114819;28;20052;-73
2022/01/15 10:57:59;;;;;;;26.58;9.85;;;5.50;99.90;;;;;;5096989;28;20051;-73
2022/01/15 11:00:49;;;;;;;25.42;9.55;;;5.30;99.90;;;;;;5113854;28;20052;-73
2022/01/15 11:03:17;;;;;;;25.00;9.02;;;5.30;99.90;;;;;;5115490;28;20050;-74
2022/01/15 11:05:46;;;;;;;26.27;9.75;;;5.40;99.90;;;;;;5096599;28;20094;-74
2022/01/15 11:08:22;;;;;;;25.27;9.00;;;5.40;99.90;;;;;;5115188;28;20192;-74
2022/01/15 11:10:50;;;;;;;25.92;9.15;;;5.40;99.90;;;;;;5096239;28;20394;-73
2022/01/15 11:13:18;;;;;;;28.67;9.73;;;5.50;99.90;;;;;;5114572;28;20391;-73
2022/01/15 11:15:46;;;;;;;27.45;9.52;;;5.50;99.90;;;;;;5096605;28;20047;-72
2022/01/15 11:18:21;;;;;;;27.77;9.93;;;5.50;99.90;;;;;;5096489;28;20386;-74
2022/01/15 11:20:51;;;;;;;27.67;9.30;;;5.50;99.90;;;;;;5096199;28;20047;-73
2022/01/15 11:23:20;;;;;;;30.10;10.93;;;5.50;99.90;;;;;;5096055;28;20051;-74
2022/01/15 11:25:46;;;;;;;30.80;11.05;;;5.40;99.90;;;;;;5114341;28;20050;-73
2022/01/15 11:28:13;;;;;;;28.30;10.93;;;5.40;99.90;;;;;;5095925;28;20387;-72
2022/01/15 11:30:41;;;;;;;29.55;10.45;;;5.50;99.90;;;;;;5114313;28;20052;-72
2022/01/15 11:33:07;;;;;;;25.98;9.55;;;5.30;99.90;;;;;;5096933;28;20099;-72
2022/01/15 11:35:44;;;;;;;33.88;10.80;;;5.40;99.90;;;;;;5112966;28;20083;-73
2022/01/15 11:38:10;;;;;;;33.83;11.13;;;5.50;99.90;;;;;;5096191;28;20104;-73
2022/01/15 11:40:46;;;;;;;31.30;10.70;;;5.50;99.90;;;;;;5096093;28;20127;-73
2022/01/15 11:43:24;;;;;;;31.37;10.63;;;5.50;99.90;;;;;;5114230;28;20039;-73
2022/01/15 11:45:58;;;;;;;37.47;11.77;;;5.50;99.90;;;;;;5114132;28;20284;-72
2022/01/15 11:48:29;;;;;;;37.40;12.30;;;5.50;99.90;;;;;;5114787;28;20044;-72
2022/01/15 11:51:14;;;;;;;32.80;11.80;;;5.40;99.90;;;;;;5080047;28;20126;-73
2022/01/15 11:53:59;;;;;;;34.45;11.55;;;5.40;99.90;;;;;;5114347;28;20059;-72
2022/01/15 11:56:39;;;;;;;36.47;12.38;;;5.40;99.90;;;;;;5115968;28;20065;-73
2022/01/15 11:59:23;;;;;;;37.17;12.75;;;5.40;99.90;;;;;;5098051;28;20070;-73
2022/01/15 12:01:50;;;;;;;34.50;11.85;;;5.40;99.90;;;;;;5114129;28;20134;-72
2022/01/15 12:04:24;;;;;;;33.13;10.77;;;5.40;99.90;;;;;;5114385;28;20046;-72
2022/01/15 12:07:05;;;;;;;30.45;11.20;;;5.40;99.90;;;;;;5096723;28;20113;-73
2022/01/15 12:09:38;;;;;;;30.00;10.48;;;5.60;99.90;;;;;;5078877;28;20048;-73
2022/01/15 12:12:34;;;;;;;31.02;9.93;;;5.50;99.90;;;;;;5095512;28;20047;-73
2022/01/15 12:15:01;;;;;;;34.63;12.82;;;5.60;99.90;;;;;;5105612;28;20107;-72
2022/01/15 12:17:32;;;;;;;36.05;11.95;;;5.60;99.90;;;;;;5114637;28;20062;-73
2022/01/15 12:20:05;;;;;;;37.50;12.95;;;5.40;99.90;;;;;;5114203;28;20089;-73
2022/01/15 12:22:35;;;;;;;32.75;11.82;;;5.40;99.90;;;;;;5114194;28;20055;-73
2022/01/15 12:25:02;;;;;;;35.55;12.00;;;5.50;99.90;;;;;;5114353;28;20048;-73
2022/01/15 12:27:30;;;;;;;34.03;12.25;;;5.40;99.90;;;;;;5114255;28;20062;-72
2022/01/15 12:30:05;;;;;;;37.72;11.38;;;5.50;99.90;;;;;;5096114;28;20433;-73
2022/01/15 12:32:32;;;;;;;35.63;11.23;;;5.60;99.90;;;;;;5114724;28;20048;-74
2022/01/15 12:35:00;;;;;;;36.35;11.45;;;5.60;99.90;;;;;;5114152;28;20054;-72
2022/01/15 12:37:26;;;;;;;38.15;13.15;;;5.50;99.90;;;;;;5095794;28;20051;-73
2022/01/15 12:39:51;;;;;;;37.13;12.20;;;5.50;99.90;;;;;;5095537;28;20050;-73
2022/01/15 12:42:17;;;;;;;37.40;12.23;;;5.50;99.90;;;;;;5111858;28;20134;-74
2022/01/15 12:44:54;;;;;;;35.25;12.05;;;5.50;99.90;;;;;;5113358;28;20468;-73
2022/01/15 12:47:21;;;;;;;38.42;13.45;;;5.50;99.90;;;;;;5095921;28;20048;-73
2022/01/15 12:49:49;;;;;;;41.65;10.30;;;5.50;99.90;;;;;;5111710;28;20127;-73
2022/01/15 12:52:15;;;;;;;37.10;12.40;;;5.50;99.90;;;;;;5095359;28;20054;-73
2022/01/15 12:54:41;;;;;;;43.47;13.27;;;5.50;99.90;;;;;;5094712;28;20048;-73
2022/01/15 12:57:07;;;;;;;36.75;11.52;;;5.50;99.90;;;;;;5112715;28;20107;-73
2022/01/15 12:59:38;;;;;;;45.80;13.38;;;5.50;99.90;;;;;;5094621;28;20043;-73
2022/01/15 13:02:05;;;;;;;44.17;13.40;;;5.50;99.90;;;;;;5094993;28;20051;-73
2022/01/15 13:04:31;;;;;;;65.85;23.88;;;5.50;99.90;;;;;;5078087;28;20058;-72
2022/01/15 13:07:01;;;;;;;59.15;19.38;;;5.50;99.90;;;;;;5094451;28;20062;-72
2022/01/15 13:09:42;;;;;;;51.28;15.23;;;5.60;99.90;;;;;;5112636;28;20040;-73
2022/01/15 13:12:11;;;;;;;41.00;12.13;;;5.50;99.90;;;;;;5112049;28;20130;-72
2022/01/15 13:14:42;;;;;;;42.20;13.32;;;5.60;99.90;;;;;;5094207;28;20077;-73
2022/01/15 13:17:20;;;;;;;40.85;12.90;;;5.50;99.90;;;;;;5112550;28;20109;-73
2022/01/15 13:19:46;;;;;;;41.47;11.43;;;5.60;99.90;;;;;;5112508;28;20490;-73